createdAt,value
2019-02-18T00:00:07.601Z,72.60
2019-02-18T00:01:07.568Z,83.90
2019-02-18T00:02:07.539Z,89.30
2019-02-18T00:03:07.504Z,75.00
2019-02-18T00:04:07.468Z,83.40
2019-02-18T00:05:07.439Z,107.10
2019-02-18T00:06:07.408Z,111.90
2019-02-18T00:07:14.119Z,111.10
2019-02-18T00:08:07.337Z,123.30
2019-02-18T00:09:07.306Z,107.10
2019-02-18T00:10:07.270Z,103.50
2019-02-18T00:11:07.236Z,91.20
2019-02-18T00:12:07.204Z,83.50
2019-02-18T00:13:07.175Z,84.90
2019-02-18T00:14:07.138Z,88.10
2019-02-18T00:15:07.107Z,86.30
2019-02-18T00:16:07.071Z,73.00
2019-02-18T00:17:07.039Z,70.10
2019-02-18T00:18:07.008Z,80.70
2019-02-18T00:19:06.974Z,76.60
2019-02-18T00:20:06.938Z,105.30
2019-02-18T00:21:06.908Z,117.00
2019-02-18T00:22:06.872Z,86.50
2019-02-18T00:23:06.840Z,119.70
2019-02-18T00:24:06.810Z,109.90
2019-02-18T00:25:06.773Z,96.00
2019-02-18T00:26:06.741Z,104.00
2019-02-18T00:27:06.711Z,104.60
2019-02-18T00:28:06.675Z,100.60
2019-02-18T00:29:06.646Z,86.70
2019-02-18T00:30:06.610Z,77.80
2019-02-18T00:31:06.576Z,86.00
2019-02-18T00:32:06.542Z,77.50
2019-02-18T00:33:06.509Z,88.90
2019-02-18T00:34:06.478Z,120.10
2019-02-18T00:35:06.443Z,146.70
2019-02-18T00:36:06.408Z,129.60
2019-02-18T00:37:06.381Z,118.60
2019-02-18T00:38:06.343Z,114.50
2019-02-18T00:39:06.310Z,96.70
2019-02-18T00:40:06.276Z,87.50
2019-02-18T00:41:06.244Z,100.00
2019-02-18T00:42:06.211Z,101.20
2019-02-18T00:43:06.178Z,86.30
2019-02-18T00:44:06.144Z,94.70
2019-02-18T00:45:06.112Z,102.00
2019-02-18T00:46:06.081Z,108.60
2019-02-18T00:47:06.045Z,95.80
2019-02-18T00:48:06.012Z,98.70
2019-02-18T00:49:05.997Z,112.50
2019-02-18T00:50:05.945Z,101.50
2019-02-18T00:51:05.912Z,95.60
2019-02-18T00:52:05.878Z,96.80
2019-02-18T00:53:05.851Z,106.60
2019-02-18T00:54:05.815Z,116.50
2019-02-18T00:55:05.781Z,111.50
2019-02-18T00:56:05.746Z,110.20
2019-02-18T00:57:05.712Z,102.70
2019-02-18T00:58:05.680Z,101.10
2019-02-18T00:59:05.647Z,88.10
2019-02-18T01:00:05.611Z,92.50
2019-02-18T01:01:05.583Z,101.80
2019-02-18T01:02:05.545Z,120.80
2019-02-18T01:03:05.513Z,110.80
2019-02-18T01:04:05.479Z,120.50
2019-02-18T01:05:05.449Z,103.60
2019-02-18T01:06:05.412Z,138.60
2019-02-18T01:07:05.380Z,121.80
2019-02-18T01:08:05.344Z,101.50
2019-02-18T01:09:05.325Z,117.10
2019-02-18T01:10:05.279Z,145.30
2019-02-18T01:11:05.253Z,160.80
2019-02-18T01:12:05.219Z,157.00
2019-02-18T01:13:05.180Z,181.30
2019-02-18T01:14:05.150Z,142.20
2019-02-18T01:15:05.117Z,105.70
2019-02-18T01:16:05.081Z,94.10
2019-02-18T01:17:05.065Z,127.70
2019-02-18T01:18:05.014Z,170.10
2019-02-18T01:19:04.979Z,140.50
2019-02-18T01:20:04.945Z,124.80
2019-02-18T01:21:04.913Z,101.90
2019-02-18T01:22:04.878Z,97.30
2019-02-18T01:23:04.847Z,96.30
2019-02-18T01:24:04.811Z,93.10
2019-02-18T01:25:04.779Z,91.70
2019-02-18T01:26:04.760Z,98.90
2019-02-18T01:27:04.712Z,82.70
2019-02-18T01:28:04.677Z,97.40
2019-02-18T01:29:04.646Z,97.20
2019-02-18T01:30:04.611Z,87.00
2019-02-18T01:31:04.579Z,91.50
2019-02-18T01:32:04.544Z,86.90
2019-02-18T01:33:04.511Z,101.40
2019-02-18T01:34:04.477Z,87.80
2019-02-18T01:35:04.445Z,97.50
2019-02-18T01:36:04.412Z,94.90
2019-02-18T01:37:04.380Z,93.50
2019-02-18T01:38:04.344Z,116.30
2019-02-18T01:39:04.310Z,132.70
2019-02-18T01:40:04.280Z,125.40
2019-02-18T01:41:04.264Z,136.30
2019-02-18T01:42:04.219Z,115.40
2019-02-18T01:43:04.176Z,112.20
2019-02-18T01:44:04.145Z,98.70
2019-02-18T01:45:04.111Z,94.50
2019-02-18T01:46:04.076Z,97.60
2019-02-18T01:47:04.041Z,126.90
2019-02-18T01:48:04.009Z,153.60
2019-02-18T01:49:03.973Z,147.90
2019-02-18T01:50:03.942Z,181.80
2019-02-18T01:51:03.909Z,116.30
2019-02-18T01:52:03.879Z,115.20
2019-02-18T01:53:03.839Z,105.20
2019-02-18T01:54:03.806Z,99.00
2019-02-18T01:55:03.773Z,88.60
2019-02-18T01:56:03.738Z,87.00
2019-02-18T01:57:03.712Z,87.80
2019-02-18T01:58:03.675Z,92.00
2019-02-18T01:59:03.639Z,103.00
2019-02-18T02:00:03.604Z,99.70
2019-02-18T02:01:03.578Z,109.60
2019-02-18T02:02:03.539Z,116.20
2019-02-18T02:03:03.505Z,116.00
2019-02-18T02:04:03.471Z,106.50
2019-02-18T02:05:03.439Z,124.40
2019-02-18T02:06:03.403Z,111.80
2019-02-18T02:07:03.371Z,109.20
2019-02-18T02:08:03.335Z,102.60
2019-02-18T02:09:03.301Z,96.50
2019-02-18T02:10:03.268Z,99.90
2019-02-18T02:11:03.239Z,103.50
2019-02-18T02:12:03.201Z,105.50
2019-02-18T02:13:03.169Z,102.10
2019-02-18T02:14:03.138Z,85.50
2019-02-18T02:15:03.101Z,83.50
2019-02-18T02:16:03.067Z,105.90
2019-02-18T02:17:03.032Z,121.00
2019-02-18T02:18:02.999Z,107.80
2019-02-18T02:19:02.965Z,101.70
2019-02-18T02:20:02.934Z,96.50
2019-02-18T02:21:02.897Z,96.60
2019-02-18T02:22:02.864Z,100.90
2019-02-18T02:23:02.831Z,95.40
2019-02-18T02:24:02.797Z,96.40
2019-02-18T02:25:02.763Z,94.20
2019-02-18T02:26:02.730Z,84.70
2019-02-18T02:27:02.697Z,80.30
2019-02-18T02:28:02.662Z,85.00
2019-02-18T02:29:02.633Z,104.90
2019-02-18T02:30:02.604Z,97.50
2019-02-18T02:31:02.568Z,101.00
2019-02-18T02:32:02.526Z,95.90
2019-02-18T02:33:02.498Z,87.30
2019-02-18T02:34:02.463Z,99.80
2019-02-18T02:35:02.426Z,107.50
2019-02-18T02:36:02.392Z,106.10
2019-02-18T02:37:02.360Z,120.70
2019-02-18T02:38:07.661Z,131.10
2019-02-18T02:39:02.297Z,91.00
2019-02-18T02:40:02.257Z,87.30
2019-02-18T02:41:02.228Z,86.60
2019-02-18T02:42:02.191Z,86.70
2019-02-18T02:43:02.156Z,82.60
2019-02-18T02:44:02.126Z,89.00
2019-02-18T02:45:02.100Z,110.70
2019-02-18T02:46:02.057Z,110.40
2019-02-18T02:47:02.024Z,114.00
2019-02-18T02:48:01.987Z,124.20
2019-02-18T02:49:01.953Z,153.30
2019-02-18T02:50:01.921Z,131.10
2019-02-18T02:51:01.887Z,125.70
2019-02-18T02:52:01.852Z,120.60
2019-02-18T02:53:01.820Z,118.40
2019-02-18T02:54:01.783Z,117.50
2019-02-18T02:55:01.751Z,139.80
2019-02-18T02:56:01.716Z,124.50
2019-02-18T02:57:01.685Z,95.90
2019-02-18T02:58:01.649Z,99.20
2019-02-18T02:59:01.614Z,114.70
2019-02-18T03:00:01.581Z,110.90
2019-02-18T03:01:01.554Z,131.80
2019-02-18T03:02:01.524Z,122.20
2019-02-18T03:03:01.478Z,136.60
2019-02-18T03:04:01.450Z,147.80
2019-02-18T03:05:01.409Z,107.60
2019-02-18T03:06:01.376Z,95.90
2019-02-18T03:07:01.356Z,101.50
2019-02-18T03:08:01.311Z,115.40
2019-02-18T03:09:01.275Z,109.60
2019-02-18T03:10:01.240Z,100.20
2019-02-18T03:11:01.207Z,82.80
2019-02-18T03:12:01.174Z,94.50
2019-02-18T03:13:01.142Z,99.20
2019-02-18T03:14:01.167Z,91.00
2019-02-18T03:15:01.071Z,85.20
2019-02-18T03:16:01.037Z,86.80
2019-02-18T03:17:01.004Z,104.30
2019-02-18T03:18:00.969Z,109.00
2019-02-18T03:19:00.945Z,104.60
2019-02-18T03:20:00.908Z,110.90
2019-02-18T03:21:00.867Z,134.20
2019-02-18T03:22:00.834Z,138.70
2019-02-18T03:23:00.800Z,109.70
2019-02-18T03:24:00.768Z,102.30
2019-02-18T03:25:00.731Z,104.60
2019-02-18T03:26:00.699Z,117.10
2019-02-18T03:27:00.666Z,110.10
2019-02-18T03:28:00.632Z,107.30
2019-02-18T03:29:00.598Z,110.60
2019-02-18T03:30:00.563Z,111.80
2019-02-18T03:31:00.571Z,113.20
2019-02-18T03:32:00.501Z,100.40
2019-02-18T03:33:00.674Z,101.40
2019-02-18T03:34:00.427Z,106.30
2019-02-18T03:35:00.832Z,94.00
2019-02-18T03:36:00.360Z,84.40
2019-02-18T03:37:00.324Z,78.90
2019-02-18T03:38:00.290Z,96.80
2019-02-18T03:39:00.255Z,97.40
2019-02-18T03:40:00.298Z,99.00
2019-02-18T03:41:03.245Z,99.60
2019-02-18T03:42:00.152Z,98.70
2019-02-18T03:43:00.119Z,110.90
2019-02-18T03:44:00.084Z,100.70
2019-02-18T03:45:00.095Z,119.90
2019-02-18T03:46:00.016Z,127.90
2019-02-18T03:46:59.985Z,98.60
2019-02-18T03:47:59.948Z,75.40
2019-02-18T03:48:59.914Z,85.90
2019-02-18T03:49:59.881Z,84.90
2019-02-18T03:50:59.848Z,86.40
2019-02-18T03:51:59.811Z,77.50
2019-02-18T03:52:59.778Z,84.40
2019-02-18T03:53:59.744Z,79.80
2019-02-18T03:54:59.718Z,88.90
2019-02-18T03:55:59.680Z,90.20
2019-02-18T03:56:59.641Z,95.90
2019-02-18T03:57:59.607Z,89.90
2019-02-18T03:58:59.574Z,88.90
2019-02-18T03:59:59.541Z,102.30
2019-02-18T04:00:59.506Z,99.30
2019-02-18T04:01:59.473Z,96.60
2019-02-18T04:02:59.448Z,113.10
2019-02-18T04:03:59.405Z,105.10
2019-02-18T04:04:59.367Z,126.20
2019-02-18T04:05:59.343Z,110.80
2019-02-18T04:06:59.304Z,104.20
2019-02-18T04:07:59.268Z,102.10
2019-02-18T04:08:59.230Z,95.20
2019-02-18T04:09:59.198Z,106.60
2019-02-18T04:10:59.163Z,103.20
2019-02-18T04:11:59.129Z,98.50
2019-02-18T04:12:59.094Z,92.90
2019-02-18T04:13:59.059Z,96.90
2019-02-18T04:14:59.027Z,98.20
2019-02-18T04:15:58.993Z,114.90
2019-02-18T04:16:58.961Z,98.80
2019-02-18T04:17:58.922Z,119.90
2019-02-18T04:18:58.892Z,135.30
2019-02-18T04:19:58.871Z,123.60
2019-02-18T04:20:58.821Z,132.70
2019-02-18T04:21:58.786Z,140.00
2019-02-18T04:22:58.752Z,136.80
2019-02-18T04:23:58.717Z,125.50
2019-02-18T04:24:58.683Z,119.00
2019-02-18T04:25:58.649Z,109.90
2019-02-18T04:26:58.615Z,113.40
2019-02-18T04:27:58.583Z,115.40
2019-02-18T04:28:58.548Z,116.70
2019-02-18T04:29:58.513Z,112.60
2019-02-18T04:30:58.478Z,104.40
2019-02-18T04:31:58.444Z,111.10
2019-02-18T04:32:58.411Z,114.70
2019-02-18T04:33:58.376Z,131.00
2019-02-18T04:34:58.341Z,98.60
2019-02-18T04:35:58.308Z,106.40
2019-02-18T04:36:58.272Z,96.50
2019-02-18T04:37:58.239Z,117.70
2019-02-18T04:38:58.205Z,115.50
2019-02-18T04:39:58.171Z,113.10
2019-02-18T04:40:58.158Z,100.90
2019-02-18T04:41:58.104Z,95.60
2019-02-18T04:42:58.069Z,84.40
2019-02-18T04:43:58.034Z,92.60
2019-02-18T04:44:58.000Z,101.90
2019-02-18T04:45:57.964Z,101.50
2019-02-18T04:46:57.931Z,104.20
2019-02-18T04:47:57.897Z,98.70
2019-02-18T04:48:57.868Z,93.00
2019-02-18T04:49:57.826Z,96.30
2019-02-18T04:50:57.793Z,81.50
2019-02-18T04:51:57.758Z,84.00
2019-02-18T04:52:57.725Z,92.50
2019-02-18T04:53:57.695Z,97.90
2019-02-18T04:54:57.658Z,96.60
2019-02-18T04:55:57.623Z,91.40
2019-02-18T04:56:57.587Z,91.50
2019-02-18T04:57:57.573Z,98.20
2019-02-18T04:58:57.524Z,86.60
2019-02-18T04:59:57.484Z,86.80
2019-02-18T05:00:57.451Z,85.40
2019-02-18T05:01:57.415Z,83.40
2019-02-18T05:02:57.383Z,112.10
2019-02-18T05:03:57.346Z,91.30
2019-02-18T05:04:57.312Z,108.20
2019-02-18T05:05:57.951Z,87.90
2019-02-18T05:06:57.244Z,89.80
2019-02-18T05:07:57.210Z,92.50
2019-02-18T05:09:05.019Z,96.30
2019-02-18T05:09:57.143Z,93.60
2019-02-18T05:10:57.105Z,89.00
2019-02-18T05:11:57.073Z,79.00
2019-02-18T05:12:57.040Z,84.50
2019-02-18T05:13:57.003Z,83.40
2019-02-18T05:14:56.969Z,88.70
2019-02-18T05:15:56.938Z,84.50
2019-02-18T05:16:56.899Z,88.30
2019-02-18T05:17:56.869Z,102.10
2019-02-18T05:18:56.832Z,81.30
2019-02-18T05:19:56.798Z,86.90
2019-02-18T05:20:56.762Z,90.10
2019-02-18T05:21:56.732Z,90.80
2019-02-18T05:22:56.694Z,82.50
2019-02-18T05:23:56.660Z,82.80
2019-02-18T05:24:56.642Z,79.90
2019-02-18T05:25:56.590Z,79.80
2019-02-18T05:26:56.557Z,92.50
2019-02-18T05:27:56.526Z,86.10
2019-02-18T05:28:56.489Z,87.70
2019-02-18T05:29:56.452Z,95.70
2019-02-18T05:30:56.419Z,101.10
2019-02-18T05:31:56.383Z,111.50
2019-02-18T05:32:56.349Z,96.20
2019-02-18T05:33:56.315Z,93.20
2019-02-18T05:34:56.280Z,91.60
2019-02-18T05:35:56.247Z,101.10
2019-02-18T05:36:56.214Z,102.10
2019-02-18T05:37:56.178Z,97.10
2019-02-18T05:38:56.145Z,101.90
2019-02-18T05:39:56.111Z,105.10
2019-02-18T05:40:56.073Z,106.60
2019-02-18T05:41:56.038Z,97.80
2019-02-18T05:42:56.004Z,88.50
2019-02-18T05:43:56.031Z,93.70
2019-02-18T05:44:55.936Z,85.70
2019-02-18T05:45:55.901Z,83.60
2019-02-18T05:46:55.866Z,83.30
2019-02-18T05:47:55.831Z,78.80
2019-02-18T05:48:55.796Z,80.20
2019-02-18T05:49:55.762Z,80.10
2019-02-18T05:50:55.726Z,79.90
2019-02-18T05:51:55.694Z,88.70
2019-02-18T05:52:55.658Z,85.00
2019-02-18T05:53:55.625Z,90.60
2019-02-18T05:54:55.590Z,80.40
2019-02-18T05:55:55.555Z,78.70
2019-02-18T05:56:55.526Z,84.70
2019-02-18T05:57:55.485Z,90.50
2019-02-18T05:58:55.454Z,88.80
2019-02-18T05:59:55.422Z,93.90
2019-02-18T06:00:55.388Z,98.40
2019-02-18T06:01:55.348Z,90.30
2019-02-18T06:02:55.313Z,94.50
2019-02-18T06:03:55.280Z,83.30
2019-02-18T06:04:55.244Z,82.80
2019-02-18T06:05:55.218Z,87.20
2019-02-18T06:06:55.176Z,82.00
2019-02-18T06:07:55.139Z,83.70
2019-02-18T06:08:55.108Z,74.50
2019-02-18T06:09:55.071Z,71.10
2019-02-18T06:10:55.038Z,71.70
2019-02-18T06:11:55.002Z,72.70
2019-02-18T06:12:54.965Z,71.30
2019-02-18T06:13:54.931Z,73.70
2019-02-18T06:14:54.897Z,66.20
2019-02-18T06:15:54.861Z,71.00
2019-02-18T06:16:54.827Z,71.80
2019-02-18T06:17:54.792Z,69.20
2019-02-18T06:18:54.762Z,72.30
2019-02-18T06:19:54.724Z,75.30
2019-02-18T06:20:54.693Z,71.40
2019-02-18T06:21:54.654Z,82.00
2019-02-18T06:22:54.629Z,84.70
2019-02-18T06:23:54.584Z,75.30
2019-02-18T06:24:54.552Z,82.10
2019-02-18T06:25:54.516Z,89.80
2019-02-18T06:26:54.480Z,81.30
2019-02-18T06:27:54.449Z,83.70
2019-02-18T06:28:54.412Z,73.70
2019-02-18T06:29:54.376Z,89.10
2019-02-18T06:30:55.043Z,85.90
2019-02-18T06:31:54.310Z,81.10
2019-02-18T06:32:54.276Z,93.20
2019-02-18T06:33:54.238Z,97.70
2019-02-18T06:34:54.203Z,88.90
2019-02-18T06:35:54.168Z,89.50
2019-02-18T06:36:54.136Z,92.30
2019-02-18T06:37:54.099Z,88.50
2019-02-18T06:38:54.064Z,96.00
2019-02-18T06:39:54.031Z,97.50
2019-02-18T06:40:53.997Z,75.90
2019-02-18T06:41:53.961Z,85.60
2019-02-18T06:42:53.925Z,66.40
2019-02-18T06:43:53.891Z,75.10
2019-02-18T06:44:53.856Z,72.10
2019-02-18T06:45:53.821Z,74.60
2019-02-18T06:46:53.788Z,85.20
2019-02-18T06:47:53.752Z,82.10
2019-02-18T06:48:53.761Z,69.70
2019-02-18T06:49:53.684Z,74.90
2019-02-18T06:50:53.650Z,67.80
2019-02-18T06:51:53.615Z,74.50
2019-02-18T06:52:53.581Z,69.00
2019-02-18T06:53:53.545Z,71.60
2019-02-18T06:54:53.511Z,73.40
2019-02-18T06:55:53.478Z,82.00
2019-02-18T06:56:53.442Z,81.20
2019-02-18T06:57:53.406Z,74.60
2019-02-18T06:58:53.372Z,75.60
2019-02-18T06:59:53.337Z,76.50
2019-02-18T07:00:53.304Z,75.50
2019-02-18T07:01:53.270Z,67.70
2019-02-18T07:02:53.236Z,65.90
2019-02-18T07:03:53.202Z,70.80
2019-02-18T07:04:53.165Z,65.00
2019-02-18T07:05:53.132Z,67.50
2019-02-18T07:06:53.100Z,71.60
2019-02-18T07:07:53.063Z,62.40
2019-02-18T07:08:53.030Z,64.10
2019-02-18T07:09:52.995Z,68.60
2019-02-18T07:10:52.961Z,67.90
2019-02-18T07:11:52.930Z,66.30
2019-02-18T07:12:52.893Z,55.60
2019-02-18T07:13:52.860Z,67.70
2019-02-18T07:14:52.826Z,54.50
2019-02-18T07:15:52.797Z,56.90
2019-02-18T07:16:52.759Z,53.20
2019-02-18T07:17:52.726Z,53.50
2019-02-18T07:18:52.692Z,49.00
2019-02-18T07:19:52.660Z,52.40
2019-02-18T07:20:52.627Z,52.50
2019-02-18T07:21:52.596Z,56.20
2019-02-18T07:22:52.559Z,55.90
2019-02-18T07:23:52.529Z,56.00
2019-02-18T07:24:52.493Z,58.70
2019-02-18T07:25:52.460Z,47.60
2019-02-18T07:26:52.427Z,51.50
2019-02-18T07:27:52.392Z,48.00
2019-02-18T07:28:52.361Z,52.30
2019-02-18T07:29:52.330Z,51.60
2019-02-18T07:30:52.296Z,66.90
2019-02-18T07:31:52.263Z,55.10
2019-02-18T07:32:52.230Z,61.90
2019-02-18T07:33:52.198Z,47.80
2019-02-18T07:34:52.171Z,43.50
2019-02-18T07:35:52.135Z,55.10
2019-02-18T07:36:52.106Z,57.00
2019-02-18T07:37:52.073Z,68.70
2019-02-18T07:38:52.037Z,62.90
2019-02-18T07:40:01.126Z,62.60
2019-02-18T07:40:51.976Z,70.50
2019-02-18T07:41:51.941Z,43.00
2019-02-18T07:42:51.908Z,44.80
2019-02-18T07:43:51.878Z,40.50
2019-02-18T07:44:51.845Z,39.90
2019-02-18T07:45:51.814Z,39.40
2019-02-18T07:46:51.785Z,36.80
2019-02-18T07:47:51.753Z,41.90
2019-02-18T07:48:51.731Z,35.40
2019-02-18T07:49:51.694Z,37.60
2019-02-18T07:50:51.660Z,33.30
2019-02-18T07:51:51.632Z,34.60
2019-02-18T07:52:51.600Z,34.50
2019-02-18T07:53:51.569Z,33.50
2019-02-18T07:54:51.540Z,33.00
2019-02-18T07:55:51.509Z,31.50
2019-02-18T07:56:51.479Z,36.00
2019-02-18T07:57:51.449Z,31.90
2019-02-18T07:58:51.420Z,32.70
2019-02-18T07:59:51.396Z,36.50
2019-02-18T08:00:51.359Z,35.20
2019-02-18T08:01:51.330Z,34.50
2019-02-18T08:02:51.302Z,29.80
2019-02-18T08:03:51.272Z,32.60
2019-02-18T08:04:51.243Z,29.70
2019-02-18T08:05:51.216Z,33.30
2019-02-18T08:06:51.185Z,29.20
2019-02-18T08:07:51.159Z,27.80
2019-02-18T08:08:51.131Z,28.00
2019-02-18T08:09:51.103Z,28.40
2019-02-18T08:10:51.073Z,28.80
2019-02-18T08:11:51.043Z,26.70
2019-02-18T08:12:51.017Z,28.20
2019-02-18T08:13:51.004Z,27.10
2019-02-18T08:14:50.959Z,25.60
2019-02-18T08:15:50.931Z,24.80
2019-02-18T08:16:50.904Z,23.20
2019-02-18T08:17:50.876Z,23.90
2019-02-18T08:18:50.849Z,25.10
2019-02-18T08:19:50.823Z,23.30
2019-02-18T08:20:50.793Z,23.00
2019-02-18T08:21:50.770Z,23.20
2019-02-18T08:22:50.741Z,23.80
2019-02-18T08:23:59.674Z,24.20
2019-02-18T08:24:50.685Z,23.50
2019-02-18T08:25:50.657Z,23.20
2019-02-18T08:26:50.632Z,25.10
2019-02-18T08:27:50.607Z,30.20
2019-02-18T08:28:50.578Z,40.40
2019-02-18T08:29:50.553Z,37.70
2019-02-18T08:30:50.525Z,33.90
2019-02-18T08:31:50.499Z,28.40
2019-02-18T08:32:50.477Z,35.00
2019-02-18T08:33:50.447Z,25.90
2019-02-18T08:34:50.422Z,26.70
2019-02-18T08:35:50.396Z,24.60
2019-02-18T08:36:50.370Z,30.60
2019-02-18T08:37:50.345Z,24.40
2019-02-18T08:38:50.319Z,21.20
2019-02-18T08:39:50.293Z,20.60
2019-02-18T08:40:50.268Z,20.30
2019-02-18T08:41:50.246Z,19.90
2019-02-18T08:42:50.217Z,20.60
2019-02-18T08:43:50.194Z,22.10
2019-02-18T08:44:50.167Z,25.90
2019-02-18T08:45:50.140Z,30.70
2019-02-18T08:46:50.118Z,42.30
2019-02-18T08:47:50.091Z,39.30
2019-02-18T08:48:50.065Z,35.70
2019-02-18T08:49:50.040Z,27.60
2019-02-18T08:50:50.015Z,20.50
2019-02-18T08:51:49.992Z,21.50
2019-02-18T08:52:49.965Z,20.70
2019-02-18T08:53:49.947Z,19.90
2019-02-18T08:54:56.256Z,20.30
2019-02-18T08:55:49.895Z,18.60
2019-02-18T08:56:49.868Z,18.90
2019-02-18T08:57:49.844Z,19.60
2019-02-18T08:58:49.825Z,22.70
2019-02-18T08:59:49.795Z,18.30
2019-02-18T09:00:49.769Z,22.20
2019-02-18T09:01:49.745Z,21.20
2019-02-18T09:02:49.723Z,19.60
2019-02-18T09:03:49.697Z,18.80
2019-02-18T09:04:49.673Z,18.70
2019-02-18T09:05:49.649Z,20.40
2019-02-18T09:06:49.626Z,20.70
2019-02-18T09:07:49.602Z,19.80
2019-02-18T09:08:49.577Z,18.80
2019-02-18T09:09:51.289Z,18.40
2019-02-18T09:10:49.528Z,18.40
2019-02-18T09:11:49.504Z,21.90
2019-02-18T09:12:49.480Z,17.40
2019-02-18T09:13:49.456Z,15.60
2019-02-18T09:14:49.433Z,19.20
2019-02-18T09:15:59.457Z,20.80
2019-02-18T09:16:49.385Z,15.60
2019-02-18T09:17:49.363Z,17.10
2019-02-18T09:18:49.340Z,16.90
2019-02-18T09:19:49.316Z,16.90
2019-02-18T09:20:49.294Z,16.50
2019-02-18T09:21:49.272Z,16.40
2019-02-18T09:22:49.248Z,16.80
2019-02-18T09:23:49.224Z,16.20
2019-02-18T09:24:49.201Z,13.80
2019-02-18T09:25:49.181Z,16.60
2019-02-18T09:26:49.157Z,16.20
2019-02-18T09:27:49.132Z,16.60
2019-02-18T09:28:49.110Z,15.00
2019-02-18T09:29:49.093Z,15.30
2019-02-18T09:30:49.066Z,17.40
2019-02-18T09:31:49.042Z,14.90
2019-02-18T09:32:49.024Z,16.30
2019-02-18T09:33:49.001Z,14.60
2019-02-18T09:34:53.279Z,14.80
2019-02-18T09:35:48.955Z,13.30
2019-02-18T09:36:48.931Z,14.60
2019-02-18T09:37:48.909Z,15.50
2019-02-18T09:38:48.887Z,13.80
2019-02-18T09:39:48.864Z,16.00
2019-02-18T09:40:51.413Z,13.80
2019-02-18T09:41:48.821Z,15.50
2019-02-18T09:42:48.800Z,13.50
2019-02-18T09:43:48.777Z,14.00
2019-02-18T09:44:48.758Z,13.40
2019-02-18T09:45:48.735Z,13.20
2019-02-18T09:46:48.717Z,14.10
2019-02-18T09:47:48.692Z,13.50
2019-02-18T09:48:48.671Z,15.10
2019-02-18T09:49:48.652Z,12.60
2019-02-18T09:50:48.628Z,14.20
2019-02-18T09:51:48.607Z,15.30
2019-02-18T09:52:48.585Z,14.70
2019-02-18T09:53:48.564Z,14.20
2019-02-18T09:54:48.545Z,13.70
2019-02-18T09:55:48.527Z,14.20
2019-02-18T09:56:48.504Z,15.30
2019-02-18T09:57:48.481Z,15.20
2019-02-18T09:58:50.142Z,15.40
2019-02-18T09:59:48.441Z,14.70
2019-02-18T10:00:48.420Z,16.70
2019-02-18T10:01:48.400Z,15.50
2019-02-18T10:02:48.383Z,14.70
2019-02-18T10:03:48.360Z,14.30
2019-02-18T10:04:48.338Z,13.70
2019-02-18T10:05:48.319Z,14.20
2019-02-18T10:06:48.299Z,15.00
2019-02-18T10:07:48.279Z,13.60
2019-02-18T10:08:48.258Z,14.10
2019-02-18T10:09:48.238Z,16.00
2019-02-18T10:10:55.459Z,15.20
2019-02-18T10:11:48.199Z,15.10
2019-02-18T10:12:48.182Z,14.60
2019-02-18T10:13:48.158Z,13.10
2019-02-18T10:14:48.139Z,12.50
2019-02-18T10:15:48.117Z,13.90
2019-02-18T10:16:48.098Z,15.20
2019-02-18T10:17:48.080Z,12.50
2019-02-18T10:18:48.060Z,13.60
2019-02-18T10:19:48.040Z,14.20
2019-02-18T10:20:48.019Z,14.60
2019-02-18T10:21:48.001Z,14.70
2019-02-18T10:22:47.983Z,13.20
2019-02-18T10:23:47.961Z,14.10
2019-02-18T10:24:51.004Z,14.20
2019-02-18T10:25:47.922Z,12.60
2019-02-18T10:26:47.902Z,15.80
2019-02-18T10:27:47.881Z,14.60
2019-02-18T10:28:47.862Z,14.00
2019-02-18T10:29:47.844Z,12.90
2019-02-18T10:30:47.823Z,12.80
2019-02-18T10:31:47.803Z,14.80
2019-02-18T10:32:47.784Z,13.50
2019-02-18T10:33:47.764Z,15.20
2019-02-18T10:34:47.747Z,15.10
2019-02-18T10:35:47.725Z,13.80
2019-02-18T10:36:47.705Z,12.50
2019-02-18T10:37:54.801Z,13.10
2019-02-18T10:38:47.670Z,14.80
2019-02-18T10:39:47.646Z,12.70
2019-02-18T10:40:47.627Z,14.10
2019-02-18T10:41:47.610Z,16.10
2019-02-18T10:42:47.589Z,15.20
2019-02-18T10:43:47.569Z,13.40
2019-02-18T10:44:47.549Z,13.70
2019-02-18T10:45:47.532Z,14.80
2019-02-18T10:46:47.514Z,12.00
2019-02-18T10:47:47.490Z,12.80
2019-02-18T10:48:47.472Z,12.70
2019-02-18T10:49:47.450Z,14.80
2019-02-18T10:50:47.434Z,16.20
2019-02-18T10:51:47.411Z,15.10
2019-02-18T10:52:47.391Z,14.20
2019-02-18T10:53:47.375Z,14.70
2019-02-18T10:54:49.527Z,13.60
2019-02-18T10:55:47.335Z,13.00
2019-02-18T10:56:47.316Z,14.80
2019-02-18T10:57:47.292Z,15.50
2019-02-18T10:58:47.272Z,15.50
2019-02-18T10:59:47.253Z,14.70
2019-02-18T11:00:47.232Z,15.80
2019-02-18T11:01:47.212Z,13.80
2019-02-18T11:02:47.193Z,15.50
2019-02-18T11:03:47.173Z,14.70
2019-02-18T11:04:47.152Z,14.60
2019-02-18T11:05:47.132Z,14.90
2019-02-18T11:06:47.112Z,13.40
2019-02-18T11:07:47.091Z,13.70
2019-02-18T11:08:47.070Z,12.50
2019-02-18T11:09:47.052Z,13.50
2019-02-18T11:10:47.034Z,14.80
2019-02-18T11:11:47.016Z,13.10
2019-02-18T11:12:47.758Z,13.50
2019-02-18T11:13:46.974Z,14.30
2019-02-18T11:14:46.953Z,14.90
2019-02-18T11:15:46.932Z,15.40
2019-02-18T11:16:46.912Z,14.60
2019-02-18T11:17:46.893Z,13.00
2019-02-18T11:18:46.875Z,14.20
2019-02-18T11:19:46.852Z,14.80
2019-02-18T11:20:46.833Z,13.50
2019-02-18T11:21:46.814Z,12.50
2019-02-18T11:22:46.797Z,13.20
2019-02-18T11:23:46.772Z,13.60
2019-02-18T11:24:46.756Z,13.60
2019-02-18T11:25:46.734Z,15.60
2019-02-18T11:26:46.714Z,16.30
2019-02-18T11:27:46.696Z,16.00
2019-02-18T11:28:46.675Z,15.10
2019-02-18T11:29:46.655Z,15.50
2019-02-18T11:30:46.642Z,17.10
2019-02-18T11:31:46.615Z,17.40
2019-02-18T11:32:46.597Z,14.70
2019-02-18T11:33:46.576Z,14.40
2019-02-18T11:34:46.557Z,14.60
2019-02-18T11:35:46.539Z,14.10
2019-02-18T11:36:46.518Z,14.30
2019-02-18T11:37:46.500Z,14.70
2019-02-18T11:38:46.481Z,16.90
2019-02-18T11:39:46.460Z,15.00
2019-02-18T11:40:46.441Z,14.80
2019-02-18T11:41:46.428Z,15.10
2019-02-18T11:42:46.402Z,15.90
2019-02-18T11:43:46.385Z,15.70
2019-02-18T11:44:46.363Z,14.60
2019-02-18T11:45:46.343Z,15.60
2019-02-18T11:46:46.324Z,15.70
2019-02-18T11:47:46.303Z,16.90
2019-02-18T11:48:46.284Z,15.70
2019-02-18T11:49:46.266Z,16.50
2019-02-18T11:50:46.246Z,17.60
2019-02-18T11:51:46.227Z,15.90
2019-02-18T11:52:46.211Z,15.00
2019-02-18T11:53:46.187Z,15.90
2019-02-18T11:54:46.180Z,16.10
2019-02-18T11:55:46.145Z,18.60
2019-02-18T11:56:46.131Z,15.60
2019-02-18T11:57:46.106Z,16.40
2019-02-18T11:58:46.085Z,16.20
2019-02-18T11:59:46.065Z,16.40
2019-02-18T12:00:46.046Z,16.00
2019-02-18T12:01:46.025Z,17.40
2019-02-18T12:02:46.006Z,17.80
2019-02-18T12:03:45.986Z,17.80
2019-02-18T12:04:45.966Z,16.80
2019-02-18T12:05:45.945Z,16.00
2019-02-18T12:06:45.926Z,16.20
2019-02-18T12:07:45.905Z,18.30
2019-02-18T12:08:45.884Z,15.80
2019-02-18T12:09:45.865Z,17.10
2019-02-18T12:10:45.847Z,16.80
2019-02-18T12:11:45.824Z,17.70
2019-02-18T12:12:45.803Z,14.90
2019-02-18T12:13:45.783Z,19.20
2019-02-18T12:14:45.763Z,17.10
2019-02-18T12:15:45.742Z,16.30
2019-02-18T12:16:45.722Z,18.60
2019-02-18T12:17:45.701Z,17.90
2019-02-18T12:18:45.681Z,15.90
2019-02-18T12:19:45.663Z,16.70
2019-02-18T12:20:45.641Z,16.70
2019-02-18T12:21:45.620Z,15.90
2019-02-18T12:22:45.600Z,18.10
2019-02-18T12:23:45.579Z,14.80
2019-02-18T12:24:45.559Z,16.80
2019-02-18T12:25:45.539Z,19.90
2019-02-18T12:26:45.519Z,17.00
2019-02-18T12:27:45.497Z,17.50
2019-02-18T12:28:45.484Z,17.90
2019-02-18T12:29:45.457Z,16.20
2019-02-18T12:30:45.437Z,17.90
2019-02-18T12:31:45.415Z,16.20
2019-02-18T12:32:45.394Z,17.30
2019-02-18T12:33:45.375Z,16.40
2019-02-18T12:34:45.354Z,15.30
2019-02-18T12:35:45.333Z,18.90
2019-02-18T12:36:45.314Z,29.70
2019-02-18T12:37:54.690Z,17.20
2019-02-18T12:38:45.272Z,16.70
2019-02-18T12:39:45.250Z,17.10
2019-02-18T12:40:45.231Z,16.00
2019-02-18T12:41:48.570Z,16.50
2019-02-18T12:42:45.191Z,20.00
2019-02-18T12:43:45.169Z,16.50
2019-02-18T12:44:45.149Z,17.50
2019-02-18T12:45:45.129Z,15.40